sensor_id;sensor_type;location;lat;lon;timestamp;P1;durP1;ratioP1;P2;durP2;ratioP2
37063;SDS011;23211;53.912;9.138;2022-10-12T00:00:26;13.57;;;3.75;;
37063;SDS011;23211;53.912;9.138;2022-10-12T00:03:11;12.07;;;3.75;;
37063;SDS011;23211;53.912;9.138;2022-10-12T00:06:01;11.35;;;3.50;;
37063;SDS011;23211;53.912;9.138;2022-10-12T00:08:50;7.30;;;3.42;;
37063;SDS011;23211;53.912;9.138;2022-10-12T00:11:37;11.82;;;3.47;;
37063;SDS011;23211;53.912;9.138;2022-10-12T00:14:25;6.38;;;3.05;;
37063;SDS011;23211;53.912;9.138;2022-10-12T00:17:10;9.00;;;3.53;;
37063;SDS011;23211;53.912;9.138;2022-10-12T00:19:56;9.35;;;3.03;;
37063;SDS011;23211;53.912;9.138;2022-10-12T00:22:42;6.85;;;3.05;;
37063;SDS011;23211;53.912;9.138;2022-10-12T00:25:28;9.05;;;3.10;;
37063;SDS011;23211;53.912;9.138;2022-10-12T00:28:13;9.82;;;3.95;;
37063;SDS011;23211;53.912;9.138;2022-10-12T00:30:59;6.95;;;2.85;;
37063;SDS011;23211;53.912;9.138;2022-10-12T00:33:46;9.77;;;2.97;;
37063;SDS011;23211;53.912;9.138;2022-10-12T00:36:33;8.95;;;3.13;;
37063;SDS011;23211;53.912;9.138;2022-10-12T00:39:20;9.18;;;3.00;;
37063;SDS011;23211;53.912;9.138;2022-10-12T00:42:06;10.00;;;2.58;;
37063;SDS011;23211;53.912;9.138;2022-10-12T00:44:55;9.60;;;2.40;;
37063;SDS011;23211;53.912;9.138;2022-10-12T00:47:43;10.10;;;2.97;;
37063;SDS011;23211;53.912;9.138;2022-10-12T00:50:35;9.00;;;2.78;;
37063;SDS011;23211;53.912;9.138;2022-10-12T00:53:22;13.30;;;3.33;;
37063;SDS011;23211;53.912;9.138;2022-10-12T00:56:15;13.02;;;2.80;;
37063;SDS011;23211;53.912;9.138;2022-10-12T00:59:05;7.65;;;2.70;;
37063;SDS011;23211;53.912;9.138;2022-10-12T01:01:55;7.25;;;2.58;;
37063;SDS011;23211;53.912;9.138;2022-10-12T01:04:41;9.15;;;3.10;;
37063;SDS011;23211;53.912;9.138;2022-10-12T01:07:27;11.15;;;3.33;;
37063;SDS011;23211;53.912;9.138;2022-10-12T01:10:13;9.13;;;2.63;;
37063;SDS011;23211;53.912;9.138;2022-10-12T01:12:59;8.57;;;3.00;;
37063;SDS011;23211;53.912;9.138;2022-10-12T01:15:53;8.27;;;2.70;;
37063;SDS011;23211;53.912;9.138;2022-10-12T01:18:50;9.57;;;3.00;;
37063;SDS011;23211;53.912;9.138;2022-10-12T01:21:49;5.43;;;2.47;;
37063;SDS011;23211;53.912;9.138;2022-10-12T01:37:46;8.32;;;2.53;;
37063;SDS011;23211;53.912;9.138;2022-10-12T01:43:44;7.32;;;2.75;;
37063;SDS011;23211;53.912;9.138;2022-10-12T01:49:16;12.20;;;3.67;;
37063;SDS011;23211;53.912;9.138;2022-10-12T01:52:09;5.47;;;2.10;;
37063;SDS011;23211;53.912;9.138;2022-10-12T02:00:59;8.65;;;2.80;;
37063;SDS011;23211;53.912;9.138;2022-10-12T02:06:50;6.63;;;2.40;;
37063;SDS011;23211;53.912;9.138;2022-10-12T02:09:44;4.13;;;1.83;;
37063;SDS011;23211;53.912;9.138;2022-10-12T02:12:30;10.63;;;2.63;;
37063;SDS011;23211;53.912;9.138;2022-10-12T02:15:18;7.75;;;2.13;;
37063;SDS011;23211;53.912;9.138;2022-10-12T02:18:08;6.80;;;2.70;;
37063;SDS011;23211;53.912;9.138;2022-10-12T02:20:58;4.20;;;1.98;;
37063;SDS011;23211;53.912;9.138;2022-10-12T02:23:45;5.20;;;2.42;;
37063;SDS011;23211;53.912;9.138;2022-10-12T02:26:34;9.13;;;2.78;;
37063;SDS011;23211;53.912;9.138;2022-10-12T02:29:24;7.20;;;2.20;;
37063;SDS011;23211;53.912;9.138;2022-10-12T02:32:32;6.68;;;2.30;;
37063;SDS011;23211;53.912;9.138;2022-10-12T02:35:32;5.75;;;2.00;;
37063;SDS011;23211;53.912;9.138;2022-10-12T02:38:33;6.13;;;2.10;;
37063;SDS011;23211;53.912;9.138;2022-10-12T02:41:24;12.43;;;2.47;;
37063;SDS011;23211;53.912;9.138;2022-10-12T02:44:15;5.22;;;1.88;;
37063;SDS011;23211;53.912;9.138;2022-10-12T02:47:07;10.40;;;2.55;;
37063;SDS011;23211;53.912;9.138;2022-10-12T02:49:54;7.15;;;2.60;;
37063;SDS011;23211;53.912;9.138;2022-10-12T02:52:44;5.15;;;2.10;;
37063;SDS011;23211;53.912;9.138;2022-10-12T02:55:31;8.35;;;2.22;;
37063;SDS011;23211;53.912;9.138;2022-10-12T02:58:21;13.63;;;2.47;;
37063;SDS011;23211;53.912;9.138;2022-10-12T03:01:07;7.18;;;3.13;;
37063;SDS011;23211;53.912;9.138;2022-10-12T03:03:53;7.18;;;2.08;;
37063;SDS011;23211;53.912;9.138;2022-10-12T03:06:39;5.72;;;2.15;;
37063;SDS011;23211;53.912;9.138;2022-10-12T03:09:26;2.63;;;1.63;;
37063;SDS011;23211;53.912;9.138;2022-10-12T03:12:12;4.97;;;2.20;;
37063;SDS011;23211;53.912;9.138;2022-10-12T03:14:58;5.00;;;2.05;;
37063;SDS011;23211;53.912;9.138;2022-10-12T03:17:44;8.18;;;2.25;;
37063;SDS011;23211;53.912;9.138;2022-10-12T03:20:29;8.50;;;3.45;;
37063;SDS011;23211;53.912;9.138;2022-10-12T03:23:15;7.63;;;2.17;;
37063;SDS011;23211;53.912;9.138;2022-10-12T03:26:01;9.77;;;2.72;;
37063;SDS011;23211;53.912;9.138;2022-10-12T03:28:47;5.68;;;1.92;;
37063;SDS011;23211;53.912;9.138;2022-10-12T03:31:33;4.85;;;2.00;;
37063;SDS011;23211;53.912;9.138;2022-10-12T03:34:19;5.03;;;2.10;;
37063;SDS011;23211;53.912;9.138;2022-10-12T03:37:04;5.88;;;1.80;;
37063;SDS011;23211;53.912;9.138;2022-10-12T03:39:50;7.05;;;1.90;;
37063;SDS011;23211;53.912;9.138;2022-10-12T03:42:36;5.82;;;2.03;;
37063;SDS011;23211;53.912;9.138;2022-10-12T03:45:22;5.15;;;2.10;;
37063;SDS011;23211;53.912;9.138;2022-10-12T03:48:08;8.05;;;2.63;;
37063;SDS011;23211;53.912;9.138;2022-10-12T03:50:53;6.82;;;2.40;;
37063;SDS011;23211;53.912;9.138;2022-10-12T03:53:39;6.32;;;2.10;;
37063;SDS011;23211;53.912;9.138;2022-10-12T03:56:25;3.85;;;1.90;;
37063;SDS011;23211;53.912;9.138;2022-10-12T03:59:11;4.57;;;2.00;;
37063;SDS011;23211;53.912;9.138;2022-10-12T04:01:57;6.05;;;1.98;;
37063;SDS011;23211;53.912;9.138;2022-10-12T04:04:42;8.52;;;2.10;;
37063;SDS011;23211;53.912;9.138;2022-10-12T04:07:28;4.57;;;2.00;;
37063;SDS011;23211;53.912;9.138;2022-10-12T04:10:14;4.18;;;1.88;;
37063;SDS011;23211;53.912;9.138;2022-10-12T04:13:00;5.90;;;2.15;;
37063;SDS011;23211;53.912;9.138;2022-10-12T04:15:46;4.85;;;1.90;;
37063;SDS011;23211;53.912;9.138;2022-10-12T04:18:32;2.40;;;1.70;;
37063;SDS011;23211;53.912;9.138;2022-10-12T04:21:18;4.03;;;1.92;;
37063;SDS011;23211;53.912;9.138;2022-10-12T04:24:06;6.88;;;2.03;;
37063;SDS011;23211;53.912;9.138;2022-10-12T04:26:52;5.95;;;2.20;;
37063;SDS011;23211;53.912;9.138;2022-10-12T04:29:38;6.95;;;2.45;;
37063;SDS011;23211;53.912;9.138;2022-10-12T04:32:24;5.30;;;1.95;;
37063;SDS011;23211;53.912;9.138;2022-10-12T04:35:09;6.88;;;1.88;;
37063;SDS011;23211;53.912;9.138;2022-10-12T04:37:56;9.27;;;1.90;;
37063;SDS011;23211;53.912;9.138;2022-10-12T04:40:45;4.88;;;2.05;;
37063;SDS011;23211;53.912;9.138;2022-10-12T04:43:32;5.68;;;1.88;;
37063;SDS011;23211;53.912;9.138;2022-10-12T04:46:18;6.30;;;2.22;;
37063;SDS011;23211;53.912;9.138;2022-10-12T04:49:04;10.00;;;1.85;;
37063;SDS011;23211;53.912;9.138;2022-10-12T04:51:49;4.97;;;2.05;;
37063;SDS011;23211;53.912;9.138;2022-10-12T04:54:35;3.60;;;1.73;;
37063;SDS011;23211;53.912;9.138;2022-10-12T04:57:21;5.63;;;1.95;;
37063;SDS011;23211;53.912;9.138;2022-10-12T05:00:07;4.78;;;1.80;;
37063;SDS011;23211;53.912;9.138;2022-10-12T05:02:53;8.50;;;2.22;;
37063;SDS011;23211;53.912;9.138;2022-10-12T05:05:39;9.35;;;2.47;;
37063;SDS011;23211;53.912;9.138;2022-10-12T05:08:25;3.20;;;1.70;;
37063;SDS011;23211;53.912;9.138;2022-10-12T05:11:12;3.10;;;1.80;;
37063;SDS011;23211;53.912;9.138;2022-10-12T05:13:58;7.07;;;2.50;;
37063;SDS011;23211;53.912;9.138;2022-10-12T05:16:43;3.00;;;2.00;;
37063;SDS011;23211;53.912;9.138;2022-10-12T05:19:29;3.92;;;1.80;;
37063;SDS011;23211;53.912;9.138;2022-10-12T05:22:15;3.67;;;1.77;;
37063;SDS011;23211;53.912;9.138;2022-10-12T05:25:01;6.75;;;1.90;;
37063;SDS011;23211;53.912;9.138;2022-10-12T05:27:47;7.82;;;2.15;;
37063;SDS011;23211;53.912;9.138;2022-10-12T05:30:33;5.10;;;2.10;;
37063;SDS011;23211;53.912;9.138;2022-10-12T05:33:19;5.88;;;2.08;;
37063;SDS011;23211;53.912;9.138;2022-10-12T05:36:04;6.38;;;2.20;;
37063;SDS011;23211;53.912;9.138;2022-10-12T05:38:50;5.03;;;2.10;;
37063;SDS011;23211;53.912;9.138;2022-10-12T05:41:36;7.47;;;2.45;;
37063;SDS011;23211;53.912;9.138;2022-10-12T05:44:22;7.57;;;2.60;;
37063;SDS011;23211;53.912;9.138;2022-10-12T05:47:08;9.80;;;2.83;;
37063;SDS011;23211;53.912;9.138;2022-10-12T05:49:54;5.60;;;2.65;;
37063;SDS011;23211;53.912;9.138;2022-10-12T05:52:40;5.78;;;2.83;;
37063;SDS011;23211;53.912;9.138;2022-10-12T05:55:26;9.95;;;3.28;;
37063;SDS011;23211;53.912;9.138;2022-10-12T05:58:11;7.13;;;3.03;;
37063;SDS011;23211;53.912;9.138;2022-10-12T06:01:04;13.55;;;3.38;;
37063;SDS011;23211;53.912;9.138;2022-10-12T06:03:54;8.07;;;3.25;;
37063;SDS011;23211;53.912;9.138;2022-10-12T06:06:40;8.68;;;3.38;;
37063;SDS011;23211;53.912;9.138;2022-10-12T06:09:26;13.50;;;4.45;;
37063;SDS011;23211;53.912;9.138;2022-10-12T06:12:11;10.75;;;3.90;;
37063;SDS011;23211;53.912;9.138;2022-10-12T06:14:57;8.63;;;3.70;;
37063;SDS011;23211;53.912;9.138;2022-10-12T06:17:43;5.75;;;3.33;;
37063;SDS011;23211;53.912;9.138;2022-10-12T06:20:29;6.97;;;3.70;;
37063;SDS011;23211;53.912;9.138;2022-10-12T06:23:14;7.90;;;3.67;;
37063;SDS011;23211;53.912;9.138;2022-10-12T06:26:00;9.52;;;4.93;;
37063;SDS011;23211;53.912;9.138;2022-10-12T06:28:46;8.77;;;4.65;;
37063;SDS011;23211;53.912;9.138;2022-10-12T06:31:32;9.75;;;3.83;;
37063;SDS011;23211;53.912;9.138;2022-10-12T06:34:18;10.95;;;4.38;;
37063;SDS011;23211;53.912;9.138;2022-10-12T06:37:04;6.55;;;4.45;;
37063;SDS011;23211;53.912;9.138;2022-10-12T06:39:49;8.27;;;4.30;;
37063;SDS011;23211;53.912;9.138;2022-10-12T06:42:35;8.43;;;3.67;;
37063;SDS011;23211;53.912;9.138;2022-10-12T06:45:21;7.38;;;3.95;;
37063;SDS011;23211;53.912;9.138;2022-10-12T06:48:07;10.93;;;4.22;;
37063;SDS011;23211;53.912;9.138;2022-10-12T06:50:53;11.85;;;4.20;;
37063;SDS011;23211;53.912;9.138;2022-10-12T06:53:38;10.07;;;4.15;;
37063;SDS011;23211;53.912;9.138;2022-10-12T06:56:24;10.20;;;3.85;;
37063;SDS011;23211;53.912;9.138;2022-10-12T06:59:10;9.70;;;4.90;;
37063;SDS011;23211;53.912;9.138;2022-10-12T07:01:57;9.07;;;4.18;;
37063;SDS011;23211;53.912;9.138;2022-10-12T07:04:43;11.25;;;4.50;;
37063;SDS011;23211;53.912;9.138;2022-10-12T07:07:33;10.77;;;4.60;;
37063;SDS011;23211;53.912;9.138;2022-10-12T07:10:19;9.48;;;4.40;;
37063;SDS011;23211;53.912;9.138;2022-10-12T07:13:05;8.10;;;4.10;;
37063;SDS011;23211;53.912;9.138;2022-10-12T07:15:51;11.68;;;4.55;;
37063;SDS011;23211;53.912;9.138;2022-10-12T07:18:37;11.05;;;4.50;;
37063;SDS011;23211;53.912;9.138;2022-10-12T07:21:24;12.45;;;4.47;;
37063;SDS011;23211;53.912;9.138;2022-10-12T07:24:10;9.20;;;4.30;;
37063;SDS011;23211;53.912;9.138;2022-10-12T07:26:57;10.93;;;3.97;;
37063;SDS011;23211;53.912;9.138;2022-10-12T07:29:42;12.38;;;4.10;;
37063;SDS011;23211;53.912;9.138;2022-10-12T07:32:28;10.48;;;4.40;;
37063;SDS011;23211;53.912;9.138;2022-10-12T07:35:14;11.05;;;4.53;;
37063;SDS011;23211;53.912;9.138;2022-10-12T07:38:00;11.27;;;4.43;;
37063;SDS011;23211;53.912;9.138;2022-10-12T07:40:46;14.45;;;4.85;;
37063;SDS011;23211;53.912;9.138;2022-10-12T07:43:32;12.82;;;4.50;;
37063;SDS011;23211;53.912;9.138;2022-10-12T07:46:18;16.17;;;4.40;;
37063;SDS011;23211;53.912;9.138;2022-10-12T07:49:04;16.73;;;4.95;;
37063;SDS011;23211;53.912;9.138;2022-10-12T07:51:49;13.02;;;4.25;;
37063;SDS011;23211;53.912;9.138;2022-10-12T07:54:35;10.05;;;3.88;;
37063;SDS011;23211;53.912;9.138;2022-10-12T07:57:21;14.00;;;4.57;;
37063;SDS011;23211;53.912;9.138;2022-10-12T08:00:07;10.50;;;4.50;;
37063;SDS011;23211;53.912;9.138;2022-10-12T08:02:58;12.85;;;4.85;;
37063;SDS011;23211;53.912;9.138;2022-10-12T08:05:44;11.07;;;4.50;;
37063;SDS011;23211;53.912;9.138;2022-10-12T08:08:29;12.65;;;5.32;;
37063;SDS011;23211;53.912;9.138;2022-10-12T08:11:15;17.48;;;4.40;;
37063;SDS011;23211;53.912;9.138;2022-10-12T08:14:03;12.68;;;4.43;;
37063;SDS011;23211;53.912;9.138;2022-10-12T08:16:48;15.57;;;4.18;;
37063;SDS011;23211;53.912;9.138;2022-10-12T08:19:34;11.63;;;5.05;;
37063;SDS011;23211;53.912;9.138;2022-10-12T08:22:20;12.40;;;4.63;;
37063;SDS011;23211;53.912;9.138;2022-10-12T08:25:06;13.13;;;4.20;;
37063;SDS011;23211;53.912;9.138;2022-10-12T08:27:52;15.52;;;4.40;;
37063;SDS011;23211;53.912;9.138;2022-10-12T08:30:38;13.77;;;4.25;;
37063;SDS011;23211;53.912;9.138;2022-10-12T08:33:26;14.63;;;4.78;;
37063;SDS011;23211;53.912;9.138;2022-10-12T08:36:13;13.07;;;4.18;;
37063;SDS011;23211;53.912;9.138;2022-10-12T08:38:59;10.70;;;4.07;;
37063;SDS011;23211;53.912;9.138;2022-10-12T08:44:58;13.40;;;4.25;;
37063;SDS011;23211;53.912;9.138;2022-10-12T08:47:59;11.93;;;3.65;;
37063;SDS011;23211;53.912;9.138;2022-10-12T08:51:09;14.38;;;4.00;;
37063;SDS011;23211;53.912;9.138;2022-10-12T08:54:07;13.80;;;4.18;;
37063;SDS011;23211;53.912;9.138;2022-10-12T08:56:58;13.43;;;3.83;;
37063;SDS011;23211;53.912;9.138;2022-10-12T08:59:44;10.00;;;3.53;;
37063;SDS011;23211;53.912;9.138;2022-10-12T09:02:48;25.05;;;3.88;;
37063;SDS011;23211;53.912;9.138;2022-10-12T09:05:51;14.32;;;3.67;;
37063;SDS011;23211;53.912;9.138;2022-10-12T09:08:50;14.70;;;4.03;;
37063;SDS011;23211;53.912;9.138;2022-10-12T09:15:15;12.43;;;3.67;;
37063;SDS011;23211;53.912;9.138;2022-10-12T09:18:05;13.50;;;3.97;;
37063;SDS011;23211;53.912;9.138;2022-10-12T09:21:02;13.18;;;3.42;;
37063;SDS011;23211;53.912;9.138;2022-10-12T09:23:51;14.82;;;3.72;;
37063;SDS011;23211;53.912;9.138;2022-10-12T09:26:40;15.27;;;4.07;;
37063;SDS011;23211;53.912;9.138;2022-10-12T09:29:29;13.40;;;3.40;;
37063;SDS011;23211;53.912;9.138;2022-10-12T09:35:05;26.05;;;3.75;;
37063;SDS011;23211;53.912;9.138;2022-10-12T09:37:52;16.15;;;3.20;;
37063;SDS011;23211;53.912;9.138;2022-10-12T09:40:38;12.60;;;3.75;;
37063;SDS011;23211;53.912;9.138;2022-10-12T09:43:24;15.82;;;3.33;;
37063;SDS011;23211;53.912;9.138;2022-10-12T09:46:10;15.10;;;3.50;;
37063;SDS011;23211;53.912;9.138;2022-10-12T09:48:59;14.05;;;3.83;;
37063;SDS011;23211;53.912;9.138;2022-10-12T09:51:45;13.13;;;3.60;;
37063;SDS011;23211;53.912;9.138;2022-10-12T09:54:31;16.10;;;4.07;;
37063;SDS011;23211;53.912;9.138;2022-10-12T09:57:29;13.95;;;3.80;;
37063;SDS011;23211;53.912;9.138;2022-10-12T10:03:21;9.57;;;2.85;;
37063;SDS011;23211;53.912;9.138;2022-10-12T10:06:08;16.05;;;3.47;;
37063;SDS011;23211;53.912;9.138;2022-10-12T10:08:53;20.75;;;4.18;;
37063;SDS011;23211;53.912;9.138;2022-10-12T10:11:40;16.08;;;3.80;;
37063;SDS011;23211;53.912;9.138;2022-10-12T10:14:34;21.60;;;3.42;;
37063;SDS011;23211;53.912;9.138;2022-10-12T10:20:40;12.98;;;3.33;;
37063;SDS011;23211;53.912;9.138;2022-10-12T10:26:24;17.02;;;3.42;;
37063;SDS011;23211;53.912;9.138;2022-10-12T10:32:13;15.45;;;3.80;;
37063;SDS011;23211;53.912;9.138;2022-10-12T10:37:58;18.45;;;3.70;;
37063;SDS011;23211;53.912;9.138;2022-10-12T10:40:49;14.68;;;3.70;;
37063;SDS011;23211;53.912;9.138;2022-10-12T10:43:36;11.65;;;3.13;;
37063;SDS011;23211;53.912;9.138;2022-10-12T10:46:25;18.92;;;3.70;;
37063;SDS011;23211;53.912;9.138;2022-10-12T10:49:49;11.48;;;3.63;;
37063;SDS011;23211;53.912;9.138;2022-10-12T10:52:33;19.92;;;3.90;;
37063;SDS011;23211;53.912;9.138;2022-10-12T10:55:22;13.57;;;3.53;;
37063;SDS011;23211;53.912;9.138;2022-10-12T10:58:18;17.42;;;3.20;;
37063;SDS011;23211;53.912;9.138;2022-10-12T11:04:14;10.95;;;2.65;;
37063;SDS011;23211;53.912;9.138;2022-10-12T11:07:13;10.57;;;2.80;;
37063;SDS011;23211;53.912;9.138;2022-10-12T11:10:16;11.68;;;2.53;;
37063;SDS011;23211;53.912;9.138;2022-10-12T11:15:53;9.45;;;2.40;;
37063;SDS011;23211;53.912;9.138;2022-10-12T11:18:49;11.88;;;2.28;;
37063;SDS011;23211;53.912;9.138;2022-10-12T11:24:56;14.00;;;3.15;;
37063;SDS011;23211;53.912;9.138;2022-10-12T11:27:46;14.85;;;3.35;;
37063;SDS011;23211;53.912;9.138;2022-10-12T11:30:39;10.98;;;3.17;;
37063;SDS011;23211;53.912;9.138;2022-10-12T11:33:29;13.30;;;3.70;;
37063;SDS011;23211;53.912;9.138;2022-10-12T11:36:23;15.88;;;3.08;;
37063;SDS011;23211;53.912;9.138;2022-10-12T11:39:17;11.43;;;3.20;;
37063;SDS011;23211;53.912;9.138;2022-10-12T11:42:10;14.65;;;2.90;;
37063;SDS011;23211;53.912;9.138;2022-10-12T11:44:59;14.27;;;3.58;;
37063;SDS011;23211;53.912;9.138;2022-10-12T11:47:52;12.82;;;3.35;;
37063;SDS011;23211;53.912;9.138;2022-10-12T11:50:46;14.52;;;3.25;;
37063;SDS011;23211;53.912;9.138;2022-10-12T11:53:39;12.50;;;3.38;;
37063;SDS011;23211;53.912;9.138;2022-10-12T11:56:51;13.20;;;2.78;;
37063;SDS011;23211;53.912;9.138;2022-10-12T11:59:53;10.13;;;2.80;;
37063;SDS011;23211;53.912;9.138;2022-10-12T12:02:54;12.02;;;2.80;;
37063;SDS011;23211;53.912;9.138;2022-10-12T12:05:52;14.55;;;3.22;;
37063;SDS011;23211;53.912;9.138;2022-10-12T12:11:28;8.63;;;2.75;;
37063;SDS011;23211;53.912;9.138;2022-10-12T12:19:56;11.85;;;2.42;;
37063;SDS011;23211;53.912;9.138;2022-10-12T12:25:34;9.65;;;2.65;;
37063;SDS011;23211;53.912;9.138;2022-10-12T12:28:22;9.40;;;2.47;;
37063;SDS011;23211;53.912;9.138;2022-10-12T12:34:12;13.38;;;2.80;;
37063;SDS011;23211;53.912;9.138;2022-10-12T12:37:08;12.40;;;2.70;;
37063;SDS011;23211;53.912;9.138;2022-10-12T12:39:57;11.43;;;3.30;;
37063;SDS011;23211;53.912;9.138;2022-10-12T12:42:43;11.52;;;2.53;;
37063;SDS011;23211;53.912;9.138;2022-10-12T12:51:35;7.70;;;2.05;;
37063;SDS011;23211;53.912;9.138;2022-10-12T12:54:22;15.43;;;2.95;;
37063;SDS011;23211;53.912;9.138;2022-10-12T13:00:21;8.73;;;2.40;;
37063;SDS011;23211;53.912;9.138;2022-10-12T13:03:32;18.37;;;3.77;;
37063;SDS011;23211;53.912;9.138;2022-10-12T13:21:45;7.40;;;3.15;;
37063;SDS011;23211;53.912;9.138;2022-10-12T13:24:37;12.68;;;2.70;;
37063;SDS011;23211;53.912;9.138;2022-10-12T13:27:30;12.13;;;3.03;;
37063;SDS011;23211;53.912;9.138;2022-10-12T13:30:27;13.10;;;2.72;;
37063;SDS011;23211;53.912;9.138;2022-10-12T13:33:20;10.35;;;2.42;;
37063;SDS011;23211;53.912;9.138;2022-10-12T13:39:13;10.15;;;2.20;;
37063;SDS011;23211;53.912;9.138;2022-10-12T13:42:01;7.28;;;2.05;;
37063;SDS011;23211;53.912;9.138;2022-10-12T13:44:46;12.98;;;2.28;;
37063;SDS011;23211;53.912;9.138;2022-10-12T13:47:33;13.05;;;2.63;;
37063;SDS011;23211;53.912;9.138;2022-10-12T13:50:26;12.20;;;2.47;;
37063;SDS011;23211;53.912;9.138;2022-10-12T13:53:14;9.75;;;2.13;;
37063;SDS011;23211;53.912;9.138;2022-10-12T13:56:14;8.23;;;2.05;;
37063;SDS011;23211;53.912;9.138;2022-10-12T13:59:02;10.30;;;2.38;;
37063;SDS011;23211;53.912;9.138;2022-10-12T14:01:50;9.70;;;2.00;;
37063;SDS011;23211;53.912;9.138;2022-10-12T14:04:41;10.82;;;2.05;;
37063;SDS011;23211;53.912;9.138;2022-10-12T14:07:28;9.48;;;2.30;;
37063;SDS011;23211;53.912;9.138;2022-10-12T14:10:19;10.00;;;2.10;;
37063;SDS011;23211;53.912;9.138;2022-10-12T14:13:12;8.80;;;2.22;;
37063;SDS011;23211;53.912;9.138;2022-10-12T14:16:00;8.20;;;2.38;;
37063;SDS011;23211;53.912;9.138;2022-10-12T14:18:47;11.77;;;2.72;;
37063;SDS011;23211;53.912;9.138;2022-10-12T14:21:35;10.40;;;2.50;;
37063;SDS011;23211;53.912;9.138;2022-10-12T14:24:20;10.50;;;2.45;;
37063;SDS011;23211;53.912;9.138;2022-10-12T14:27:16;6.80;;;1.98;;
37063;SDS011;23211;53.912;9.138;2022-10-12T14:30:15;10.30;;;2.65;;
37063;SDS011;23211;53.912;9.138;2022-10-12T14:39:08;10.23;;;2.33;;
37063;SDS011;23211;53.912;9.138;2022-10-12T14:42:02;10.13;;;2.42;;
37063;SDS011;23211;53.912;9.138;2022-10-12T14:45:04;6.70;;;2.08;;
37063;SDS011;23211;53.912;9.138;2022-10-12T14:47:51;10.73;;;2.33;;
37063;SDS011;23211;53.912;9.138;2022-10-12T14:50:37;6.40;;;2.47;;
37063;SDS011;23211;53.912;9.138;2022-10-12T14:53:23;8.00;;;2.08;;
37063;SDS011;23211;53.912;9.138;2022-10-12T14:56:13;7.57;;;2.67;;
37063;SDS011;23211;53.912;9.138;2022-10-12T14:58:59;11.20;;;2.22;;
37063;SDS011;23211;53.912;9.138;2022-10-12T15:01:44;11.82;;;2.60;;
37063;SDS011;23211;53.912;9.138;2022-10-12T15:04:30;9.02;;;2.78;;
37063;SDS011;23211;53.912;9.138;2022-10-12T15:07:20;11.82;;;2.88;;
37063;SDS011;23211;53.912;9.138;2022-10-12T15:10:06;9.95;;;2.13;;
37063;SDS011;23211;53.912;9.138;2022-10-12T15:12:53;6.30;;;2.45;;
37063;SDS011;23211;53.912;9.138;2022-10-12T15:15:43;7.93;;;2.20;;
37063;SDS011;23211;53.912;9.138;2022-10-12T15:18:30;6.38;;;2.00;;
37063;SDS011;23211;53.912;9.138;2022-10-12T15:21:16;9.75;;;1.80;;
37063;SDS011;23211;53.912;9.138;2022-10-12T15:24:07;10.00;;;1.98;;
37063;SDS011;23211;53.912;9.138;2022-10-12T15:26:58;5.70;;;2.03;;
37063;SDS011;23211;53.912;9.138;2022-10-12T15:29:44;11.57;;;2.47;;
37063;SDS011;23211;53.912;9.138;2022-10-12T15:32:30;11.75;;;2.55;;
37063;SDS011;23211;53.912;9.138;2022-10-12T15:35:17;11.82;;;2.97;;
37063;SDS011;23211;53.912;9.138;2022-10-12T15:38:04;14.18;;;2.85;;
37063;SDS011;23211;53.912;9.138;2022-10-12T15:40:50;11.02;;;3.10;;
37063;SDS011;23211;53.912;9.138;2022-10-12T15:43:37;11.88;;;2.33;;
37063;SDS011;23211;53.912;9.138;2022-10-12T15:46:22;10.02;;;2.17;;
37063;SDS011;23211;53.912;9.138;2022-10-12T15:49:08;9.40;;;2.72;;
37063;SDS011;23211;53.912;9.138;2022-10-12T15:51:55;6.07;;;2.08;;
37063;SDS011;23211;53.912;9.138;2022-10-12T15:54:41;15.45;;;2.58;;
37063;SDS011;23211;53.912;9.138;2022-10-12T15:57:26;7.97;;;2.65;;
37063;SDS011;23211;53.912;9.138;2022-10-12T16:00:13;7.95;;;2.38;;
37063;SDS011;23211;53.912;9.138;2022-10-12T16:03:00;21.48;;;3.15;;
37063;SDS011;23211;53.912;9.138;2022-10-12T16:05:46;8.38;;;2.33;;
37063;SDS011;23211;53.912;9.138;2022-10-12T16:08:32;13.43;;;2.88;;
37063;SDS011;23211;53.912;9.138;2022-10-12T16:11:18;9.82;;;2.35;;
37063;SDS011;23211;53.912;9.138;2022-10-12T16:14:04;6.00;;;2.17;;
37063;SDS011;23211;53.912;9.138;2022-10-12T16:16:50;12.00;;;2.85;;
37063;SDS011;23211;53.912;9.138;2022-10-12T16:19:36;8.93;;;2.47;;
37063;SDS011;23211;53.912;9.138;2022-10-12T16:22:22;9.00;;;2.33;;
37063;SDS011;23211;53.912;9.138;2022-10-12T16:25:09;13.80;;;4.07;;
37063;SDS011;23211;53.912;9.138;2022-10-12T16:27:56;9.80;;;2.92;;
37063;SDS011;23211;53.912;9.138;2022-10-12T16:30:42;23.45;;;4.13;;
37063;SDS011;23211;53.912;9.138;2022-10-12T16:33:28;14.20;;;4.20;;
37063;SDS011;23211;53.912;9.138;2022-10-12T16:36:14;13.68;;;3.38;;
37063;SDS011;23211;53.912;9.138;2022-10-12T16:39:01;14.00;;;2.80;;
37063;SDS011;23211;53.912;9.138;2022-10-12T16:41:46;13.63;;;3.50;;
37063;SDS011;23211;53.912;9.138;2022-10-12T16:44:32;8.73;;;2.38;;
37063;SDS011;23211;53.912;9.138;2022-10-12T16:47:18;10.38;;;3.17;;
37063;SDS011;23211;53.912;9.138;2022-10-12T16:50:04;11.30;;;3.38;;
37063;SDS011;23211;53.912;9.138;2022-10-12T16:52:51;7.63;;;2.80;;
37063;SDS011;23211;53.912;9.138;2022-10-12T16:55:37;9.18;;;2.72;;
37063;SDS011;23211;53.912;9.138;2022-10-12T16:58:23;5.75;;;2.30;;
37063;SDS011;23211;53.912;9.138;2022-10-12T17:01:09;13.57;;;2.63;;
37063;SDS011;23211;53.912;9.138;2022-10-12T17:03:56;6.38;;;2.10;;
37063;SDS011;23211;53.912;9.138;2022-10-12T17:06:46;11.63;;;2.33;;
37063;SDS011;23211;53.912;9.138;2022-10-12T17:09:32;8.63;;;1.92;;
37063;SDS011;23211;53.912;9.138;2022-10-12T17:12:18;6.68;;;2.45;;
37063;SDS011;23211;53.912;9.138;2022-10-12T17:15:04;6.95;;;2.05;;
37063;SDS011;23211;53.912;9.138;2022-10-12T17:17:50;19.67;;;3.20;;
37063;SDS011;23211;53.912;9.138;2022-10-12T17:20:38;8.13;;;2.42;;
37063;SDS011;23211;53.912;9.138;2022-10-12T17:23:24;9.48;;;2.30;;
37063;SDS011;23211;53.912;9.138;2022-10-12T17:26:09;6.55;;;2.30;;
37063;SDS011;23211;53.912;9.138;2022-10-12T17:28:55;8.98;;;2.33;;
37063;SDS011;23211;53.912;9.138;2022-10-12T17:31:41;9.63;;;2.08;;
37063;SDS011;23211;53.912;9.138;2022-10-12T17:34:28;5.35;;;1.75;;
37063;SDS011;23211;53.912;9.138;2022-10-12T17:40:06;9.07;;;2.58;;
37063;SDS011;23211;53.912;9.138;2022-10-12T17:42:53;95.63;;;45.72;;
37063;SDS011;23211;53.912;9.138;2022-10-12T17:45:39;129.02;;;65.35;;
37063;SDS011;23211;53.912;9.138;2022-10-12T17:48:25;72.57;;;33.88;;
37063;SDS011;23211;53.912;9.138;2022-10-12T17:51:11;37.92;;;17.15;;
37063;SDS011;23211;53.912;9.138;2022-10-12T17:53:58;18.35;;;8.10;;
37063;SDS011;23211;53.912;9.138;2022-10-12T17:56:44;11.57;;;4.93;;
37063;SDS011;23211;53.912;9.138;2022-10-12T17:59:29;12.27;;;4.25;;
37063;SDS011;23211;53.912;9.138;2022-10-12T18:02:15;9.55;;;3.00;;
37063;SDS011;23211;53.912;9.138;2022-10-12T18:05:01;9.88;;;2.63;;
37063;SDS011;23211;53.912;9.138;2022-10-12T18:07:47;10.45;;;3.20;;
37063;SDS011;23211;53.912;9.138;2022-10-12T18:10:32;12.65;;;2.63;;
37063;SDS011;23211;53.912;9.138;2022-10-12T18:13:18;5.40;;;2.17;;
37063;SDS011;23211;53.912;9.138;2022-10-12T18:16:08;8.90;;;2.63;;
37063;SDS011;23211;53.912;9.138;2022-10-12T18:18:56;9.82;;;2.67;;
37063;SDS011;23211;53.912;9.138;2022-10-12T18:21:43;12.68;;;2.63;;
37063;SDS011;23211;53.912;9.138;2022-10-12T18:24:28;15.18;;;3.95;;
37063;SDS011;23211;53.912;9.138;2022-10-12T18:27:14;15.05;;;4.15;;
37063;SDS011;23211;53.912;9.138;2022-10-12T18:30:00;11.93;;;3.72;;
37063;SDS011;23211;53.912;9.138;2022-10-12T18:32:46;11.20;;;3.72;;
37063;SDS011;23211;53.912;9.138;2022-10-12T18:35:32;12.90;;;3.38;;
37063;SDS011;23211;53.912;9.138;2022-10-12T18:38:18;10.48;;;3.05;;